Portada
METAR-TAF:

METAR-TAF

Aeroports :

Terol, Espanya

latitud: 40-24-43N, longitud: 01-13-03W, altitud: 1030 m

Observació

L'informe es va fer fa 30 minuts, a les 18:00 UTC
Vent 8 kt del Nord/Nord-Oest
Temperatura 11°C
Humitat 94%
Pressió 1018 hPa
Visibilitat: 8000 m
pluja

METAR: LETL 191800Z AUTO 34008KT 8000 +RA FEW004/// SCT047/// BKN059/// 11/10 Q1018

Hora: 20:30 (18:30 UTC)


TAF: manca

Observacions i pronòstics meteorològics de més de 4000 aeroports (METAR i TAF).

Les estacions disponibles són els punts grocs i vermells al mapa.

Posi el ratolí al punt desitjat per veure el nom de l'estació.

Feu clic per veure les observacions i els pronòstics meteorològics.

Per canviar el mapa: feu clic els botons verds amb una creu de color negre per apropar; al botó verd amb un guió per allunyar la imatge; o en les fletxes verdes per a mapes adjacents.


METAR-TAF: